createdAt,value
2023-01-11T00:00:39.154Z,100455.25
2023-01-11T00:03:06.281Z,100452.44
2023-01-11T00:05:40.277Z,100443.97
2023-01-11T00:08:07.886Z,100439.78
2023-01-11T00:10:34.520Z,100435.44
2023-01-11T00:13:01.319Z,100429.47
2023-01-11T00:15:27.885Z,100439.47
2023-01-11T00:17:54.269Z,100426.53
2023-01-11T00:20:20.640Z,100435.28
2023-01-11T00:22:47.063Z,100430.19
2023-01-11T00:25:13.390Z,100430.72
2023-01-11T00:27:39.783Z,100427.88
2023-01-11T00:30:06.573Z,100421.31
2023-01-11T00:32:33.115Z,100427.78
2023-01-11T00:34:59.446Z,100421.84
2023-01-11T00:37:25.754Z,100414.00
2023-01-11T00:39:52.413Z,100409.38
2023-01-11T00:42:37.597Z,100407.41
2023-01-11T00:45:22.764Z,100399.47
2023-01-11T00:47:57.989Z,100400.28
2023-01-11T00:50:25.810Z,100403.13
2023-01-11T00:52:52.152Z,100387.03
2023-01-11T00:55:18.759Z,100380.31
2023-01-11T00:57:45.150Z,100371.34
2023-01-11T01:00:12.070Z,100373.03
2023-01-11T01:02:38.544Z,100377.84
2023-01-11T01:05:05.308Z,100373.19
2023-01-11T01:07:31.663Z,100367.69
2023-01-11T01:09:58.130Z,100372.38
2023-01-11T01:12:43.045Z,100371.75
2023-01-11T01:15:10.247Z,100366.88
2023-01-11T01:17:36.670Z,100383.59
2023-01-11T01:20:03.591Z,100371.97
2023-01-11T01:22:30.164Z,100363.63
2023-01-11T01:24:56.483Z,100357.34
2023-01-11T01:27:22.819Z,100365.19
2023-01-11T01:29:49.198Z,100369.78
2023-01-11T01:32:15.546Z,100368.44
2023-01-11T01:34:41.885Z,100377.72
2023-01-11T01:37:11.055Z,100363.72
2023-01-11T01:39:37.825Z,100373.75
2023-01-11T01:42:05.871Z,100361.13
2023-01-11T01:44:50.728Z,100366.66
2023-01-11T01:47:17.460Z,100366.13
2023-01-11T01:49:45.056Z,100371.16
2023-01-11T01:52:12.103Z,100369.38
2023-01-11T01:54:41.188Z,100363.06
2023-01-11T01:57:27.781Z,100360.91
2023-01-11T01:59:57.196Z,100359.81
2023-01-11T02:02:25.063Z,100367.44
2023-01-11T02:04:53.091Z,100359.31
2023-01-11T02:07:39.637Z,100358.53
2023-01-11T02:10:10.468Z,100354.56
2023-01-11T02:12:43.420Z,100352.88
2023-01-11T02:15:11.424Z,100353.34
2023-01-11T02:17:37.823Z,100353.03
2023-01-11T02:20:13.731Z,100350.22
2023-01-11T02:23:06.194Z,100338.63
2023-01-11T02:25:54.012Z,100336.09
2023-01-11T02:28:44.330Z,100324.50
2023-01-11T02:31:24.245Z,100326.09
2023-01-11T02:34:02.825Z,100319.09
2023-01-11T02:36:44.259Z,100325.06
2023-01-11T02:39:30.897Z,100324.03
2023-01-11T02:42:45.442Z,100322.88
2023-01-11T02:45:30.819Z,100314.44
2023-01-11T02:48:02.537Z,100312.44
2023-01-11T02:50:42.385Z,100319.22
2023-01-11T02:53:25.815Z,100314.94
2023-01-11T02:55:55.882Z,100302.50
2023-01-11T02:58:23.405Z,100301.31
2023-01-11T03:00:50.480Z,100293.38
2023-01-11T03:03:24.706Z,100288.25
2023-01-11T03:05:55.141Z,100290.78
2023-01-11T03:08:30.860Z,100291.28
2023-01-11T03:11:03.677Z,100281.88
2023-01-11T03:13:55.208Z,100281.88
2023-01-11T03:16:25.089Z,100280.38
2023-01-11T03:19:22.764Z,100269.59
2023-01-11T03:22:08.273Z,100266.63
2023-01-11T03:24:55.669Z,100266.63
2023-01-11T03:27:45.848Z,100265.94
2023-01-11T03:30:21.853Z,100259.34
2023-01-11T03:33:02.083Z,100255.75
2023-01-11T03:35:37.653Z,100248.31
2023-01-11T03:38:27.674Z,100234.91
2023-01-11T03:41:05.917Z,100237.22
2023-01-11T03:43:35.468Z,100230.56
2023-01-11T03:46:07.162Z,100233.59
2023-01-11T03:48:40.088Z,100234.09
2023-01-11T03:51:09.907Z,100235.91
2023-01-11T03:53:38.077Z,100229.78
2023-01-11T03:56:08.119Z,100236.72
2023-01-11T03:58:34.649Z,100223.28
2023-01-11T04:01:01.567Z,100217.69
2023-01-11T04:03:28.248Z,100212.16
2023-01-11T04:05:57.948Z,100209.84
2023-01-11T04:08:24.314Z,100214.84
2023-01-11T04:10:50.710Z,100214.72
2023-01-11T04:13:17.099Z,100214.91
2023-01-11T04:15:43.537Z,100216.44
2023-01-11T04:18:09.905Z,100215.09
2023-01-11T04:20:38.838Z,100207.47
2023-01-11T04:23:05.712Z,100197.53
2023-01-11T04:25:32.044Z,100204.00
2023-01-11T04:27:58.582Z,100204.66
2023-01-11T04:30:25.334Z,100193.53
2023-01-11T04:32:51.820Z,100191.56
2023-01-11T04:35:18.348Z,100183.91
2023-01-11T04:37:44.744Z,100183.41
2023-01-11T04:40:11.644Z,100181.59
2023-01-11T04:42:38.049Z,100190.88
2023-01-11T04:45:06.031Z,100182.59
2023-01-11T04:47:32.590Z,100177.97
2023-01-11T04:49:58.992Z,100188.94
2023-01-11T04:52:25.332Z,100185.63
2023-01-11T04:54:53.813Z,100188.94
2023-01-11T04:57:20.435Z,100187.66
2023-01-11T04:59:46.796Z,100179.69
2023-01-11T05:02:15.227Z,100170.06
2023-01-11T05:04:41.580Z,100166.03
2023-01-11T05:07:08.681Z,100165.19
2023-01-11T05:09:35.625Z,100159.56
2023-01-11T05:12:02.044Z,100155.41
2023-01-11T05:14:28.438Z,100149.78
2023-01-11T05:16:54.781Z,100152.94
2023-01-11T05:19:21.272Z,100151.28
2023-01-11T05:21:47.645Z,100143.47
2023-01-11T05:24:15.437Z,100142.97
2023-01-11T05:26:42.987Z,100137.81
2023-01-11T05:29:11.663Z,100140.00
2023-01-11T05:31:39.647Z,100142.97
2023-01-11T05:34:09.299Z,100134.50
2023-01-11T05:36:36.061Z,100141.50
2023-01-11T05:39:04.543Z,100143.81
2023-01-11T05:41:30.988Z,100135.19
2023-01-11T05:44:15.922Z,100134.34
2023-01-11T05:46:43.300Z,100138.97
2023-01-11T05:49:10.743Z,100140.66
2023-01-11T05:51:38.145Z,100130.34
2023-01-11T05:54:06.624Z,100132.84
2023-01-11T05:56:33.123Z,100120.69
2023-01-11T05:58:59.482Z,100121.72
2023-01-11T06:01:25.892Z,100130.66
2023-01-11T06:03:52.443Z,100124.22
2023-01-11T06:06:21.602Z,100123.19
2023-01-11T06:08:48.217Z,100119.53
2023-01-11T06:11:15.181Z,100117.69
2023-01-11T06:13:41.711Z,100115.06
2023-01-11T06:16:13.840Z,100117.69
2023-01-11T06:18:45.754Z,100118.03
2023-01-11T06:21:12.721Z,100111.88
2023-01-11T06:23:41.513Z,100107.22
2023-01-11T06:26:09.776Z,100104.91
2023-01-11T06:28:36.895Z,100099.91
2023-01-11T06:31:04.128Z,100095.59
2023-01-11T06:33:31.089Z,100099.41
2023-01-11T06:35:57.523Z,100092.44
2023-01-11T06:38:25.447Z,100085.94
2023-01-11T06:40:55.758Z,100083.94
2023-01-11T06:43:23.182Z,100068.31
2023-01-11T06:45:50.039Z,100066.81
2023-01-11T06:48:20.389Z,100068.81
2023-01-11T06:50:54.335Z,100069.66
2023-01-11T06:53:21.404Z,100069.28
2023-01-11T06:55:52.672Z,100062.81
2023-01-11T06:58:19.619Z,100065.31
2023-01-11T07:00:46.401Z,100062.47
2023-01-11T07:03:15.648Z,100071.13
2023-01-11T07:05:43.954Z,100064.81
2023-01-11T07:08:10.479Z,100065.13
2023-01-11T07:10:37.445Z,100063.81
2023-01-11T07:13:04.044Z,100062.47
2023-01-11T07:15:30.621Z,100056.00
2023-01-11T07:17:59.997Z,100057.16
2023-01-11T07:20:26.904Z,100058.47
2023-01-11T07:22:58.079Z,100055.31
2023-01-11T07:25:25.636Z,100058.97
2023-01-11T07:27:59.074Z,100060.16
2023-01-11T07:30:27.411Z,100067.94
2023-01-11T07:32:54.153Z,100063.81
2023-01-11T07:35:21.070Z,100066.28
2023-01-11T07:37:47.502Z,100073.13
2023-01-11T07:40:16.163Z,100082.78
2023-01-11T07:43:05.549Z,100074.41
2023-01-11T07:45:44.778Z,100066.78
2023-01-11T07:48:12.005Z,100071.59
2023-01-11T07:50:40.476Z,100074.25
2023-01-11T07:53:08.577Z,100066.09
2023-01-11T07:55:35.340Z,100063.44
2023-01-11T07:58:03.028Z,100067.94
2023-01-11T08:00:29.586Z,100067.25
2023-01-11T08:02:56.175Z,100064.91
2023-01-11T08:05:23.703Z,100061.25
2023-01-11T08:07:50.300Z,100070.22
2023-01-11T08:10:16.960Z,100070.22
2023-01-11T08:13:05.675Z,100071.06
2023-01-11T08:15:33.160Z,100068.06
2023-01-11T08:18:00.799Z,100058.75
2023-01-11T08:20:27.293Z,100059.38
2023-01-11T08:22:53.803Z,100060.41
2023-01-11T08:25:20.600Z,100049.25
2023-01-11T08:27:46.967Z,100054.91
2023-01-11T08:30:13.710Z,100043.22
2023-01-11T08:32:40.063Z,100041.22
2023-01-11T08:35:06.679Z,100054.38
2023-01-11T08:37:33.073Z,100049.53
2023-01-11T08:39:59.518Z,100044.38
2023-01-11T08:42:26.834Z,100050.19
2023-01-11T08:44:53.188Z,100055.53
2023-01-11T08:47:19.489Z,100054.69
2023-01-11T08:49:46.030Z,100052.69
2023-01-11T08:52:13.873Z,100048.19
2023-01-11T08:54:40.576Z,100046.66
2023-01-11T08:57:06.978Z,100043.00
2023-01-11T08:59:33.371Z,100050.00
2023-01-11T09:01:59.945Z,100054.16
2023-01-11T09:04:26.471Z,100053.81
2023-01-11T09:06:53.434Z,100047.31
2023-01-11T09:09:20.140Z,100051.47
2023-01-11T09:11:56.496Z,100049.47
2023-01-11T09:14:24.498Z,100049.63
2023-01-11T09:16:51.646Z,100046.81
2023-01-11T09:19:18.075Z,100043.59
2023-01-11T09:21:46.119Z,100040.78
2023-01-11T09:24:13.233Z,100053.28
2023-01-11T09:26:41.383Z,100058.25
2023-01-11T09:29:08.188Z,100063.59
2023-01-11T09:31:34.716Z,100057.59
2023-01-11T09:34:01.271Z,100059.59
2023-01-11T09:36:27.996Z,100055.59
2023-01-11T09:38:57.307Z,100053.09
2023-01-11T09:41:27.165Z,100053.09
2023-01-11T09:44:02.353Z,100057.59
2023-01-11T09:46:29.146Z,100062.22
2023-01-11T09:48:59.395Z,100062.56
2023-01-11T09:51:33.921Z,100060.56
2023-01-11T09:54:02.115Z,100057.06
2023-01-11T09:56:35.118Z,100063.06
2023-01-11T09:59:20.115Z,100061.53
2023-01-11T10:02:17.997Z,100060.03
2023-01-11T10:04:53.575Z,100065.34
2023-01-11T10:18:23.801Z,100053.00
2023-01-11T10:18:29.554Z,100064.81
2023-01-11T10:20:30.798Z,100067.66
2023-01-11T10:23:21.584Z,100058.00
2023-01-11T10:25:51.507Z,100056.47
2023-01-11T10:28:22.949Z,100061.78
2023-01-11T10:30:58.202Z,100060.28
2023-01-11T10:33:42.934Z,100060.44
2023-01-11T10:36:42.378Z,100063.25
2023-01-11T10:39:24.570Z,100062.09
2023-01-11T10:42:02.295Z,100066.59
2023-01-11T10:44:37.839Z,100072.75
2023-01-11T10:47:10.703Z,100087.72
2023-01-11T10:49:59.417Z,100093.88
2023-01-11T10:52:35.197Z,100101.19
2023-01-11T10:55:12.768Z,100097.88
2023-01-11T10:58:00.379Z,100083.38
2023-01-11T11:00:56.997Z,100079.34
2023-01-11T11:03:34.067Z,100074.53
2023-01-11T11:06:10.736Z,100079.03
2023-01-11T11:08:53.411Z,100069.50
2023-01-11T11:11:31.988Z,100054.78
2023-01-11T11:14:04.383Z,100058.06
2023-01-11T11:16:53.291Z,100056.66
2023-01-11T11:19:22.280Z,100049.63
2023-01-11T11:21:49.596Z,100055.81
2023-01-11T11:24:33.153Z,100053.25
2023-01-11T11:27:19.709Z,100054.22
2023-01-11T11:29:54.280Z,100053.16
2023-01-11T11:32:29.392Z,100059.25
2023-01-11T11:34:55.954Z,100046.38
2023-01-11T11:37:27.585Z,100036.34
2023-01-11T11:39:54.296Z,100024.13
2023-01-11T11:42:22.112Z,100026.94
2023-01-11T11:45:07.164Z,100041.88
2023-01-11T11:47:33.601Z,100045.31
2023-01-11T11:50:43.234Z,100045.09
2023-01-11T11:53:33.480Z,100060.72
2023-01-11T11:56:06.444Z,100067.91
2023-01-11T11:58:32.904Z,100066.41
2023-01-11T12:00:59.528Z,100068.41
2023-01-11T12:03:30.439Z,100070.31
2023-01-11T12:06:02.051Z,100064.50
2023-01-11T12:08:31.745Z,100068.16
2023-01-11T12:11:02.910Z,100067.34
2023-01-11T12:13:37.616Z,100066.28
2023-01-11T12:16:07.302Z,100071.28
2023-01-11T12:18:36.540Z,100085.47
2023-01-11T12:21:21.406Z,100071.41
2023-01-11T12:23:48.711Z,100079.59
2023-01-11T12:27:01.769Z,100067.16
2023-01-11T12:29:48.776Z,100062.59
2023-01-11T12:32:17.828Z,100070.25
2023-01-11T12:35:13.878Z,100070.38
2023-01-11T12:38:06.457Z,100069.91
2023-01-11T12:41:01.406Z,100068.34
2023-01-11T12:43:51.248Z,100067.19
2023-01-11T12:46:24.720Z,100064.00
2023-01-11T12:49:16.100Z,100073.25
2023-01-11T12:51:59.704Z,100067.31
2023-01-11T12:54:38.423Z,100078.81
2023-01-11T12:57:14.437Z,100091.81
2023-01-11T13:00:15.125Z,100081.78
2023-01-11T13:03:03.103Z,100089.56
2023-01-11T13:05:54.233Z,100101.75
2023-01-11T13:08:29.622Z,100108.41
2023-01-11T13:11:37.264Z,100101.41
2023-01-11T13:14:22.565Z,100096.91
2023-01-11T13:16:48.814Z,100101.06
2023-01-11T13:19:19.288Z,100105.06
2023-01-11T13:21:53.180Z,100106.38
2023-01-11T13:24:32.880Z,100104.03
2023-01-11T13:27:04.939Z,100106.88
2023-01-11T13:29:34.265Z,100100.34
2023-01-11T13:32:03.739Z,100106.88
2023-01-11T13:34:36.138Z,100100.34
2023-01-11T13:37:14.077Z,100092.81
2023-01-11T13:39:45.656Z,100093.25
2023-01-11T13:42:24.274Z,100093.84
2023-01-11T13:45:01.828Z,100094.53
2023-01-11T13:47:35.447Z,100095.72
2023-01-11T13:50:10.669Z,100107.34
2023-01-11T13:52:58.619Z,100116.78
2023-01-11T13:55:35.157Z,100104.00
2023-01-11T13:58:14.592Z,100112.03
2023-01-11T14:00:41.809Z,100120.56
2023-01-11T14:03:26.376Z,100129.28
2023-01-11T14:06:02.519Z,100133.22
2023-01-11T14:09:19.241Z,100138.63
2023-01-11T14:11:48.581Z,100122.44
2023-01-11T14:14:34.956Z,100131.44
2023-01-11T14:17:17.720Z,100136.91
2023-01-11T14:19:53.030Z,100143.25
2023-01-11T14:22:29.009Z,100150.44
2023-01-11T14:24:59.466Z,100157.44
2023-01-11T14:27:35.621Z,100158.38
2023-01-11T14:30:39.847Z,100162.13
2023-01-11T14:33:26.725Z,100169.91
2023-01-11T14:36:02.283Z,100185.03
2023-01-11T14:38:39.485Z,100191.56
2023-01-11T14:41:08.837Z,100190.19
2023-01-11T14:43:44.040Z,100205.13
2023-01-11T14:46:51.153Z,100217.94
2023-01-11T14:49:27.495Z,100224.31
2023-01-11T14:52:00.847Z,100232.75
2023-01-11T14:54:37.199Z,100232.75
2023-01-11T14:57:03.637Z,100234.50
2023-01-11T14:59:30.090Z,100238.34
2023-01-11T15:02:02.611Z,100234.81
2023-01-11T15:04:30.590Z,100247.91
2023-01-11T15:06:57.077Z,100250.41
2023-01-11T15:09:46.643Z,100255.94
2023-01-11T15:12:14.653Z,100259.13
2023-01-11T15:14:48.181Z,100250.59
2023-01-11T15:17:38.278Z,100261.25
2023-01-11T15:20:11.667Z,100269.91
2023-01-11T15:22:38.345Z,100274.13
2023-01-11T15:25:19.363Z,100280.56
2023-01-11T15:27:45.988Z,100285.25
2023-01-11T15:30:30.724Z,100290.16
2023-01-11T15:33:19.155Z,100297.75
2023-01-11T15:35:57.710Z,100295.59
2023-01-11T15:38:50.642Z,100293.56
2023-01-11T15:41:37.585Z,100292.91
2023-01-11T15:44:19.377Z,100304.63
2023-01-11T15:47:01.714Z,100308.88
2023-01-11T15:50:10.234Z,100313.31
2023-01-11T15:53:31.025Z,100308.38
2023-01-11T15:56:06.075Z,100302.47
2023-01-11T15:59:09.349Z,100316.72
2023-01-11T16:02:06.090Z,100310.88
2023-01-11T16:04:56.577Z,100312.22
2023-01-11T16:07:42.116Z,100324.91
2023-01-11T16:10:30.902Z,100326.41
2023-01-11T16:13:08.987Z,100329.22
2023-01-11T16:15:43.614Z,100332.94
2023-01-11T16:18:14.559Z,100337.59
2023-01-11T16:20:43.842Z,100324.28
2023-01-11T16:23:18.493Z,100325.81
2023-01-11T16:25:46.369Z,100326.28
2023-01-11T16:28:13.903Z,100339.81
2023-01-11T16:30:41.091Z,100343.81
2023-01-11T16:33:26.602Z,100348.16
2023-01-11T16:36:18.169Z,100345.50
2023-01-11T16:39:01.090Z,100352.31
2023-01-11T16:41:32.654Z,100359.00
2023-01-11T16:44:02.917Z,100352.16
2023-01-11T16:47:06.436Z,100365.00
2023-01-11T16:49:33.085Z,100364.16
2023-01-11T16:52:02.349Z,100371.81
2023-01-11T16:54:31.043Z,100376.63
2023-01-11T16:56:58.303Z,100375.31
2023-01-11T16:59:34.487Z,100374.47
2023-01-11T17:02:05.306Z,100388.13
2023-01-11T17:04:34.197Z,100396.78
2023-01-11T17:07:23.547Z,100384.16
2023-01-11T17:09:50.368Z,100391.78
2023-01-11T17:12:20.425Z,100396.94
2023-01-11T17:14:57.897Z,100398.78
2023-01-11T17:17:25.251Z,100423.75
2023-01-11T17:19:59.474Z,100420.38
2023-01-11T17:22:33.950Z,100423.22
2023-01-11T17:25:12.379Z,100435.34
2023-01-11T17:27:40.615Z,100440.66
2023-01-11T17:30:36.599Z,100446.47
2023-01-11T17:33:03.248Z,100441.59
2023-01-11T17:35:33.494Z,100435.03
2023-01-11T17:38:03.438Z,100436.88
2023-01-11T17:40:32.929Z,100439.56
2023-01-11T17:43:30.415Z,100447.19
2023-01-11T17:45:58.179Z,100442.81
2023-01-11T17:48:26.912Z,100446.13
2023-01-11T17:50:56.623Z,100456.84
2023-01-11T17:53:32.147Z,100461.81
2023-01-11T17:56:00.840Z,100462.50
2023-01-11T17:58:28.948Z,100474.94
2023-01-11T18:01:18.221Z,100487.72
2023-01-11T18:03:51.504Z,100489.53
2023-01-11T18:06:24.463Z,100493.75
2023-01-11T18:08:55.114Z,100502.41
2023-01-11T18:11:33.752Z,100506.34
2023-01-11T18:14:03.537Z,100507.81
2023-01-11T18:16:29.982Z,100506.66
2023-01-11T18:18:56.644Z,100503.72
2023-01-11T18:21:26.007Z,100515.03
2023-01-11T18:24:10.832Z,100510.63
2023-01-11T18:26:39.111Z,100512.00
2023-01-11T18:29:05.731Z,100515.75
2023-01-11T18:31:32.392Z,100531.59
2023-01-11T18:33:58.959Z,100535.59
2023-01-11T18:36:29.797Z,100530.16
2023-01-11T18:38:56.443Z,100529.69
2023-01-11T18:41:43.206Z,100532.19
2023-01-11T18:44:11.852Z,100535.81
2023-01-11T18:46:38.166Z,100533.13
2023-01-11T18:49:04.581Z,100530.81
2023-01-11T18:51:36.278Z,100542.34
2023-01-11T18:54:02.653Z,100553.31
2023-01-11T18:56:29.007Z,100545.09
2023-01-11T18:58:55.389Z,100548.34
2023-01-11T19:01:21.845Z,100550.34
2023-01-11T19:03:48.851Z,100544.81
2023-01-11T19:06:19.226Z,100542.41
2023-01-11T19:08:45.616Z,100542.72
2023-01-11T19:11:13.792Z,100538.66
2023-01-11T19:13:40.293Z,100538.56
2023-01-11T19:16:07.420Z,100548.59
2023-01-11T19:18:35.336Z,100549.75
2023-01-11T19:21:03.162Z,100549.50
2023-01-11T19:23:29.576Z,100553.09
2023-01-11T19:25:57.782Z,100554.84
2023-01-11T19:28:24.329Z,100558.94
2023-01-11T19:30:50.753Z,100562.69
2023-01-11T19:33:17.200Z,100572.09
2023-01-11T19:35:44.255Z,100559.31
2023-01-11T19:38:10.711Z,100563.84
2023-01-11T19:40:37.052Z,100568.97
2023-01-11T19:43:03.424Z,100567.41
2023-01-11T19:45:29.763Z,100573.38
2023-01-11T19:47:56.141Z,100575.66
2023-01-11T19:50:22.542Z,100569.81
2023-01-11T19:52:49.371Z,100564.19
2023-01-11T19:55:16.697Z,100571.94
2023-01-11T19:57:43.054Z,100568.16
2023-01-11T20:00:11.637Z,100567.97
2023-01-11T20:02:39.377Z,100573.41
2023-01-11T20:05:06.354Z,100579.34
2023-01-11T20:07:33.411Z,100574.00
2023-01-11T20:09:59.844Z,100584.06
2023-01-11T20:12:26.325Z,100580.41
2023-01-11T20:14:56.325Z,100570.03
2023-01-11T20:17:23.944Z,100567.97
2023-01-11T20:19:54.340Z,100570.78
2023-01-11T20:22:24.485Z,100575.75
2023-01-11T20:24:50.972Z,100571.16
2023-01-11T20:27:17.538Z,100577.13
2023-01-11T20:29:44.159Z,100581.38
2023-01-11T20:32:34.883Z,100584.00
2023-01-11T20:34:57.142Z,100587.03
2023-01-11T20:37:23.473Z,100593.19
2023-01-11T20:39:50.069Z,100594.25
2023-01-11T20:42:16.452Z,100584.03
2023-01-11T20:44:42.825Z,100578.41
2023-01-11T20:47:09.229Z,100575.97
2023-01-11T20:49:35.624Z,100578.94
2023-01-11T20:52:02.088Z,100568.16
2023-01-11T20:54:28.495Z,100564.81
2023-01-11T20:56:57.798Z,100554.69
2023-01-11T20:59:24.835Z,100544.13
2023-01-11T21:01:51.246Z,100546.31
2023-01-11T21:04:18.536Z,100545.41
2023-01-11T21:06:47.798Z,100540.78
2023-01-11T21:09:15.795Z,100540.16
2023-01-11T21:11:42.554Z,100537.78
2023-01-11T21:14:11.864Z,100537.66
2023-01-11T21:16:42.656Z,100532.53
2023-01-11T21:19:11.669Z,100523.44
2023-01-11T21:21:38.078Z,100529.63
2023-01-11T21:24:05.040Z,100524.81
2023-01-11T21:26:32.481Z,100538.78
2023-01-11T21:29:00.996Z,100531.59
2023-01-11T21:31:28.896Z,100530.66
2023-01-11T21:33:55.400Z,100525.53
2023-01-11T21:36:23.523Z,100524.06
2023-01-11T21:38:50.075Z,100520.53
2023-01-11T21:41:18.781Z,100511.72
2023-01-11T21:43:46.525Z,100520.31
2023-01-11T21:46:13.385Z,100518.44
2023-01-11T21:48:39.756Z,100532.31
2023-01-11T21:51:09.949Z,100525.84
2023-01-11T21:53:36.759Z,100517.81
2023-01-11T21:56:04.858Z,100521.38
2023-01-11T21:58:31.219Z,100528.34
2023-01-11T22:00:57.678Z,100529.72
2023-01-11T22:03:28.242Z,100526.19
2023-01-11T22:06:01.729Z,100533.59
2023-01-11T22:08:28.317Z,100531.38
2023-01-11T22:11:02.199Z,100537.47
2023-01-11T22:13:29.685Z,100534.53
2023-01-11T22:16:04.034Z,100548.22
2023-01-11T22:18:30.339Z,100553.63
2023-01-11T22:20:57.284Z,100538.38
2023-01-11T22:23:23.858Z,100536.41
2023-01-11T22:25:50.279Z,100531.69
2023-01-11T22:28:17.226Z,100534.22
2023-01-11T22:30:43.607Z,100531.16
2023-01-11T22:33:10.032Z,100523.84
2023-01-11T22:35:36.435Z,100535.78
2023-01-11T22:38:02.833Z,100544.25
2023-01-11T22:40:29.212Z,100544.44
2023-01-11T22:42:55.598Z,100541.91
2023-01-11T22:45:22.009Z,100539.09
2023-01-11T22:47:48.648Z,100549.56
2023-01-11T22:50:15.336Z,100548.09
2023-01-11T22:52:41.676Z,100546.63
2023-01-11T22:55:08.454Z,100542.44
2023-01-11T22:57:35.043Z,100537.66
2023-01-11T23:00:01.750Z,100529.63
2023-01-11T23:02:29.008Z,100528.16
2023-01-11T23:04:55.351Z,100529.19
2023-01-11T23:07:21.683Z,100531.38
2023-01-11T23:09:48.056Z,100525.41
2023-01-11T23:12:33.036Z,100522.28
2023-01-11T23:14:59.481Z,100530.53
2023-01-11T23:17:25.856Z,100524.22
2023-01-11T23:19:52.203Z,100529.66
2023-01-11T23:22:18.570Z,100525.91
2023-01-11T23:24:44.966Z,100513.78
2023-01-11T23:27:11.461Z,100516.34
2023-01-11T23:29:37.932Z,100517.19
2023-01-11T23:32:04.539Z,100517.00
2023-01-11T23:34:30.948Z,100516.47
2023-01-11T23:36:57.371Z,100505.06
2023-01-11T23:39:23.898Z,100512.56
2023-01-11T23:42:08.906Z,100510.13
2023-01-11T23:44:35.381Z,100511.59
2023-01-11T23:47:20.376Z,100507.00
2023-01-11T23:49:50.810Z,100506.06
2023-01-11T23:52:18.592Z,100508.91
2023-01-11T23:54:45.603Z,100504.56
2023-01-11T23:57:13.379Z,100499.91
2023-01-11T23:59:41.078Z,100497.78
